Time;durP1;ratioP1;P1;durP2;ratioP2;P2;SDS_P1;SDS_P2;PMS_P1;PMS_P2;Temp;Humidity;BMP_temperature;BMP_pressure;BME280_temperature;BME280_humidity;BME280_pressure;Samples;Min_cycle;Max_cycle;Signal;HPM_P1;HPM_P2
2022/03/08 00:01:57;;;;;;;21.65;6.82;;;;;;;0.08;62.83;102175.81;5029012;28;20021;-76
2022/03/08 00:04:24;;;;;;;19.90;6.95;;;;;;;0.07;63.13;102180.22;5036652;28;20057;-77
2022/03/08 00:06:49;;;;;;;19.02;6.45;;;;;;;0.08;62.53;102168.75;5028170;28;20140;-77
2022/03/08 00:09:15;;;;;;;19.17;6.50;;;;;;;0.15;61.83;102177.53;5027242;28;20397;-77
2022/03/08 00:11:40;;;;;;;17.27;5.90;;;;;;;0.20;62.62;102173.06;5025506;28;20025;-76
2022/03/08 00:14:05;;;;;;;18.83;6.07;;;;;;;0.27;61.71;102165.97;5028487;28;20025;-76
2022/03/08 00:16:30;;;;;;;22.85;7.63;;;;;;;0.27;62.07;102169.47;5026118;28;20041;-76
2022/03/08 00:18:56;;;;;;;17.83;6.25;;;;;;;0.28;62.23;102165.94;5030241;28;20466;-76
2022/03/08 00:21:21;;;;;;;17.05;6.22;;;;;;;0.31;61.93;102167.69;5022963;28;20105;-76
2022/03/08 00:23:47;;;;;;;21.20;7.00;;;;;;;0.34;61.27;102163.25;5029313;28;20040;-76
2022/03/08 00:26:12;;;;;;;18.67;6.28;;;;;;;0.37;61.57;102161.44;5027277;28;20025;-76
2022/03/08 00:28:38;;;;;;;21.35;6.85;;;;;;;0.40;61.09;102162.31;5029334;28;20029;-76
2022/03/08 00:31:03;;;;;;;17.88;6.03;;;;;;;0.40;61.29;102156.16;5028758;28;20036;-76
2022/03/08 00:33:28;;;;;;;20.58;6.80;;;;;;;0.42;61.03;102157.00;5033737;28;20119;-76
2022/03/08 00:35:54;;;;;;;18.77;6.55;;;;;;;0.38;61.08;102158.81;5031538;28;20030;-76
2022/03/08 00:38:20;;;;;;;21.60;6.90;;;;;;;0.37;61.10;102158.78;5030480;28;20025;-76
2022/03/08 00:40:46;;;;;;;18.20;6.32;;;;;;;0.38;60.49;102152.63;5031519;28;20052;-76
2022/03/08 00:43:11;;;;;;;20.30;7.07;;;;;;;0.39;60.91;102149.97;5025791;28;20025;-76
2022/03/08 00:45:36;;;;;;;19.83;6.05;;;;;;;0.42;60.25;102159.66;5023618;28;20047;-76
2022/03/08 00:48:02;;;;;;;21.17;7.57;;;;;;;0.40;60.75;102157.03;5031815;28;20124;-76
2022/03/08 00:50:29;;;;;;;18.63;5.90;;;;;;;0.39;60.54;102157.91;5031447;28;20029;-76
2022/03/08 00:52:56;;;;;;;17.50;5.63;;;;;;;0.41;59.95;102158.78;5032898;28;20025;-76
2022/03/08 00:55:23;;;;;;;20.45;6.88;;;;;;;0.41;59.69;102152.59;5027372;28;20021;-76
2022/03/08 00:57:48;;;;;;;19.52;6.32;;;;;;;0.41;60.19;102155.25;5029058;28;20017;-77
2022/03/08 01:00:16;;;;;;;19.00;5.97;;;;;;;0.36;60.55;102151.78;5029777;28;20033;-77
2022/03/08 01:02:41;;;;;;;19.02;6.95;;;;;;;0.36;60.31;102152.66;5031208;28;20354;-77
2022/03/08 01:05:08;;;;;;;20.33;6.68;;;;;;;0.37;59.88;102156.16;5030678;28;20033;-77
2022/03/08 01:07:33;;;;;;;19.35;6.10;;;;;;;0.36;60.20;102151.78;5029506;28;20079;-77
2022/03/08 01:09:59;;;;;;;18.52;6.30;;;;;;;0.38;60.04;102152.63;5031917;28;20116;-76
2022/03/08 01:12:25;;;;;;;20.30;6.47;;;;;;;0.40;59.41;102142.94;5029457;28;20041;-76
2022/03/08 01:14:51;;;;;;;19.35;6.15;;;;;;;0.46;58.85;102148.16;5017529;28;20554;-76
2022/03/08 01:17:16;;;;;;;14.55;5.38;;;;;;;0.46;59.63;102146.38;5031726;28;20100;-76
2022/03/08 01:19:42;;;;;;;17.50;5.97;;;;;;;0.50;58.51;102148.09;5031276;28;20116;-76
2022/03/08 01:22:07;;;;;;;18.88;6.28;;;;;;;0.52;58.89;102146.31;5030511;28;20032;-76
2022/03/08 01:24:32;;;;;;;29.15;6.68;;;;;;;0.56;58.46;102146.25;5031614;28;20025;-76
2022/03/08 01:26:58;;;;;;;15.55;5.20;;;;;;;0.56;58.97;102146.25;5029406;28;20048;-76
2022/03/08 01:29:24;;;;;;;20.02;6.28;;;;;;;0.57;58.09;102145.38;5030641;28;20025;-77
2022/03/08 01:31:49;;;;;;;19.52;6.63;;;;;;;0.57;58.56;102148.03;5030517;28;20018;-77
2022/03/08 01:34:14;;;;;;;21.35;6.20;;;;;;;0.59;57.91;102143.63;5032873;28;20546;-77
2022/03/08 01:36:41;;;;;;;18.65;5.80;;;;;;;0.62;57.99;102125.91;5030845;28;20990;-76
2022/03/08 01:39:06;;;;;;;17.55;5.55;;;;;;;0.63;57.87;102132.97;5029754;28;20036;-76
2022/03/08 01:41:32;;;;;;;20.92;5.70;;;;;;;0.63;57.90;102129.44;5030641;28;20018;-76
2022/03/08 01:43:57;;;;;;;20.50;5.90;;;;;;;0.67;57.54;102128.50;5028413;28;20036;-76
2022/03/08 01:46:23;;;;;;;17.20;5.85;;;;;;;0.65;57.85;102120.59;5029170;28;20143;-76
2022/03/08 01:48:48;;;;;;;19.40;6.00;;;;;;;0.64;57.63;102117.97;5031061;28;20163;-76
2022/03/08 01:51:14;;;;;;;22.00;6.90;;;;;;;0.62;58.21;102125.06;5030331;28;20029;-76
2022/03/08 01:53:40;;;;;;;18.88;5.90;;;;;;;0.61;57.54;102112.72;5030526;28;20026;-76
2022/03/08 01:56:07;;;;;;;18.08;5.60;;;;;;;0.59;57.93;102112.72;5029468;28;20028;-76
2022/03/08 01:58:32;;;;;;;17.02;5.90;;;;;;;0.61;57.50;102108.28;5031027;28;20025;-76
2022/03/08 02:00:58;;;;;;;17.52;5.88;;;;;;;0.60;57.44;102103.91;5030516;28;20017;-76
2022/03/08 02:03:23;;;;;;;18.73;5.97;;;;;;;0.64;57.09;102107.38;5030444;28;20036;-76
2022/03/08 02:05:48;;;;;;;19.67;6.05;;;;;;;0.66;57.34;102105.63;5029860;28;20037;-76
2022/03/08 02:08:13;;;;;;;17.48;5.97;;;;;;;0.64;57.25;102108.25;5050876;28;20040;-76
2022/03/08 02:10:39;;;;;;;17.80;5.43;;;;;;;0.64;57.16;102097.66;5050484;28;20460;-76
2022/03/08 02:13:04;;;;;;;15.82;6.43;;;;;;;0.62;57.24;102102.09;5031017;28;20039;-76
2022/03/08 02:15:29;;;;;;;19.17;6.35;;;;;;;0.61;57.25;102097.69;5032469;28;20032;-77
2022/03/08 02:17:57;;;;;;;19.25;7.05;;;;;;;0.58;56.89;102095.09;5050008;28;20086;-76
2022/03/08 02:20:23;;;;;;;18.00;6.28;;;;;;;0.57;57.40;102090.72;5049562;28;20039;-76
2022/03/08 02:22:50;;;;;;;19.10;6.22;;;;;;;0.55;57.51;102088.97;5049798;28;20476;-76
2022/03/08 02:25:17;;;;;;;18.13;6.97;;;;;;;0.55;57.50;102099.56;5049760;28;20032;-76
2022/03/08 02:27:44;;;;;;;19.13;6.45;;;;;;;0.55;57.10;102099.56;5048821;28;20036;-76
2022/03/08 02:30:15;;;;;;;18.25;6.57;;;;;;;0.55;57.34;102094.28;5031841;28;20115;-76
2022/03/08 02:32:40;;;;;;;15.93;6.03;;;;;;;0.51;57.25;102090.75;5032937;28;20055;-76
2022/03/08 02:35:09;;;;;;;18.25;6.45;;;;;;;0.52;57.45;102087.25;5033569;28;20021;-76
2022/03/08 02:37:43;;;;;;;18.80;6.25;;;;;;;0.51;57.32;102090.75;5049684;28;20480;-76
2022/03/08 02:40:11;;;;;;;16.58;5.60;;;;;;;0.49;57.68;102084.63;5048918;28;20469;-76
2022/03/08 02:42:37;;;;;;;18.20;6.53;;;;;;;0.49;57.16;102079.34;5048451;28;20485;-76
2022/03/08 02:45:04;;;;;;;18.48;6.10;;;;;;;0.47;57.77;102083.75;5030896;28;20025;-76
2022/03/08 02:47:29;;;;;;;19.90;6.65;;;;;;;0.47;57.99;102067.88;5030559;28;20021;-76
2022/03/08 02:49:55;;;;;;;20.75;6.03;;;;;;;0.47;57.72;102065.25;5032227;28;20031;-76
2022/03/08 02:52:20;;;;;;;19.77;6.35;;;;;;;0.45;57.56;102064.41;5048641;28;20017;-77
2022/03/08 02:54:45;;;;;;;17.40;5.90;;;;;;;0.43;57.97;102060.91;5049923;28;20029;-77
2022/03/08 02:57:10;;;;;;;17.15;6.22;;;;;;;0.41;57.73;102068.84;5029474;28;20025;-76
2022/03/08 02:59:36;;;;;;;20.73;6.57;;;;;;;0.38;58.06;102057.41;5036947;28;20436;-76
2022/03/08 03:02:03;;;;;;;18.63;6.28;;;;;;;0.36;57.87;102059.22;5043221;28;20106;-76
2022/03/08 03:04:28;;;;;;;18.98;6.28;;;;;;;0.33;57.94;102055.69;5054426;28;20439;-76
2022/03/08 03:06:53;;;;;;;20.00;6.82;;;;;;;0.31;57.91;102044.28;5031528;28;20074;-76
2022/03/08 03:09:18;;;;;;;17.20;5.63;;;;;;;0.31;57.91;102040.75;5030876;28;20484;-76
2022/03/08 03:11:44;;;;;;;17.67;6.30;;;;;;;0.29;58.20;102043.44;5049808;28;20029;-76
2022/03/08 03:14:09;;;;;;;16.23;5.75;;;;;;;0.27;58.53;102037.25;5049546;28;20067;-76
2022/03/08 03:16:34;;;;;;;19.73;6.55;;;;;;;0.25;58.36;102036.41;5031099;28;20111;-76
2022/03/08 03:19:00;;;;;;;17.13;6.10;;;;;;;0.23;58.57;102038.19;5049189;28;20411;-76
2022/03/08 03:21:25;;;;;;;18.65;6.15;;;;;;;0.23;58.48;102027.59;5044084;28;20031;-76
2022/03/08 03:23:50;;;;;;;19.13;6.60;;;;;;;0.24;58.24;102024.09;5019502;28;20056;-76
2022/03/08 03:26:15;;;;;;;16.50;5.88;;;;;;;0.25;58.22;102025.84;5048254;28;20027;-77
2022/03/08 03:28:40;;;;;;;18.63;6.43;;;;;;;0.21;59.21;102015.31;5031392;28;20063;-77
2022/03/08 03:31:06;;;;;;;17.80;6.70;;;;;;;0.20;58.46;102016.22;5030970;28;20033;-77
2022/03/08 03:33:31;;;;;;;17.58;6.05;;;;;;;0.19;58.61;102014.44;5050402;28;20396;-77
2022/03/08 03:35:56;;;;;;;20.58;6.32;;;;;;;0.16;58.88;102004.78;5049262;28;20051;-77
2022/03/08 03:38:21;;;;;;;19.30;6.25;;;;;;;0.13;59.00;102007.47;5048538;28;20090;-76
2022/03/08 03:40:47;;;;;;;21.77;6.68;;;;;;;0.10;58.88;102008.38;5048507;28;20075;-76
2022/03/08 03:43:12;;;;;;;19.25;6.55;;;;;;;0.09;59.04;102009.28;5047697;28;20037;-76
2022/03/08 03:45:38;;;;;;;20.02;6.07;;;;;;;0.08;58.95;102010.16;5048754;28;20111;-77
2022/03/08 03:48:04;;;;;;;19.08;6.15;;;;;;;0.08;59.03;102014.56;5048249;28;20029;-76
2022/03/08 03:50:29;;;;;;;18.25;6.07;;;;;;;0.08;58.89;102009.28;5031780;28;20035;-76
2022/03/08 03:52:54;;;;;;;18.92;7.05;;;;;;;0.07;58.97;102011.03;5030876;28;20090;-77
2022/03/08 03:55:20;;;;;;;18.35;6.45;;;;;;;0.06;59.28;102011.94;5048576;28;20497;-77
2022/03/08 03:57:45;;;;;;;19.25;6.40;;;;;;;0.05;59.31;102015.47;5031036;28;20426;-77
2022/03/08 04:00:13;;;;;;;18.75;6.50;;;;;;;0.05;58.92;102010.19;5030395;28;20059;-77
2022/03/08 04:02:39;;;;;;;19.52;6.93;;;;;;;0.05;59.18;102006.69;5048477;28;20400;-76
2022/03/08 04:05:06;;;;;;;17.73;6.22;;;;;;;0.03;59.33;102009.34;5049030;28;20108;-76
2022/03/08 04:07:32;;;;;;;15.07;5.40;;;;;;;0.02;59.34;102012.88;5048246;28;20048;-76
2022/03/08 04:09:58;;;;;;;22.98;6.78;;;;;;;-0.01;59.50;102005.84;5052216;28;20049;-76
2022/03/08 04:12:23;;;;;;;20.92;6.95;;;;;;;-0.03;60.08;102010.28;5028478;28;20039;-76
2022/03/08 04:14:48;;;;;;;17.23;5.90;;;;;;;-0.04;59.58;102010.31;5034335;28;20082;-77
2022/03/08 04:17:14;;;;;;;16.95;6.25;;;;;;;-0.04;59.55;102011.16;5034224;28;20503;-77
2022/03/08 04:19:40;;;;;;;17.08;5.95;;;;;;;-0.08;59.96;102009.44;5034568;28;20033;-77
2022/03/08 04:22:06;;;;;;;20.52;7.07;;;;;;;-0.09;60.11;101997.13;5051801;28;20111;-77
2022/03/08 04:24:32;;;;;;;16.05;5.38;;;;;;;-0.08;60.05;102003.28;5052676;28;20383;-76
2022/03/08 04:26:58;;;;;;;21.02;7.28;;;;;;;-0.09;60.09;101998.88;5033028;28;20033;-76
2022/03/08 04:29:23;;;;;;;18.50;5.90;;;;;;;-0.10;59.93;101998.03;5033757;28;20461;-77
2022/03/08 04:31:49;;;;;;;18.65;6.50;;;;;;;-0.11;59.90;102000.69;5053157;28;20400;-76
2022/03/08 04:34:14;;;;;;;21.02;7.10;;;;;;;-0.13;60.13;102002.44;5053938;28;20036;-76
2022/03/08 04:36:40;;;;;;;19.92;6.57;;;;;;;-0.13;60.18;101998.06;5034372;28;20021;-76
2022/03/08 04:39:05;;;;;;;20.55;6.97;;;;;;;-0.15;60.06;101999.81;5034926;28;20059;-76
2022/03/08 04:41:30;;;;;;;23.02;7.78;;;;;;;-0.18;60.78;102002.50;5051658;28;20028;-76
2022/03/08 04:43:56;;;;;;;20.70;7.20;;;;;;;-0.20;60.17;102002.50;5051295;28;20035;-76
2022/03/08 04:46:21;;;;;;;19.70;6.55;;;;;;;-0.21;60.22;102002.53;5049858;28;20043;-76
2022/03/08 04:48:46;;;;;;;19.98;6.63;;;;;;;-0.21;60.62;102005.16;5052279;28;20057;-76
2022/03/08 04:51:11;;;;;;;17.58;6.18;;;;;;;-0.22;60.43;102003.41;5051059;28;20104;-76
2022/03/08 04:53:38;;;;;;;20.95;7.35;;;;;;;-0.25;60.82;102006.09;5034349;28;20025;-76
2022/03/08 04:56:03;;;;;;;18.85;6.07;;;;;;;-0.27;60.44;102006.09;5042865;28;20060;-76
2022/03/08 04:58:28;;;;;;;18.92;6.60;;;;;;;-0.29;60.95;102001.72;5033014;28;20056;-76
2022/03/08 05:00:54;;;;;;;21.55;7.05;;;;;;;-0.29;60.57;101999.97;5034129;28;20354;-76
2022/03/08 05:03:19;;;;;;;19.10;6.97;;;;;;;-0.31;61.34;101996.44;5035889;28;20041;-76
2022/03/08 05:05:44;;;;;;;18.05;6.28;;;;;;;-0.36;61.06;101999.13;5033380;28;20491;-76
2022/03/08 05:08:10;;;;;;;18.70;7.00;;;;;;;-0.37;61.27;102004.44;5051278;28;20057;-76
2022/03/08 05:10:35;;;;;;;19.15;6.57;;;;;;;-0.39;61.01;101996.53;5033490;28;20035;-77
2022/03/08 05:13:01;;;;;;;18.95;6.68;;;;;;;-0.38;61.02;101998.28;5050685;28;20037;-77
2022/03/08 05:15:27;;;;;;;20.33;7.32;;;;;;;-0.34;60.75;101995.63;5051086;28;20113;-77
2022/03/08 05:17:52;;;;;;;20.17;7.78;;;;;;;-0.36;61.19;101988.56;5033719;28;20024;-77
2022/03/08 05:20:17;;;;;;;20.75;6.70;;;;;;;-0.37;60.77;101986.84;5049795;28;20020;-77
2022/03/08 05:22:43;;;;;;;19.25;6.78;;;;;;;-0.37;60.79;101988.59;5033862;28;20037;-77
2022/03/08 05:25:09;;;;;;;21.15;7.50;;;;;;;-0.36;61.06;101991.22;5033767;28;20028;-77
2022/03/08 05:27:34;;;;;;;19.77;6.75;;;;;;;-0.33;60.88;101987.69;5032887;28;20032;-77
2022/03/08 05:29:59;;;;;;;19.55;7.60;;;;;;;-0.30;60.80;101981.50;5050288;28;20369;-77
2022/03/08 05:32:25;;;;;;;16.80;6.15;;;;;;;-0.30;61.04;101984.13;5050833;28;20025;-77
2022/03/08 05:34:50;;;;;;;20.17;7.03;;;;;;;-0.31;61.24;101977.09;5054843;28;20040;-77
2022/03/08 05:37:16;;;;;;;21.35;6.60;;;;;;;-0.32;60.78;101976.22;5050464;28;20029;-76
2022/03/08 05:39:41;;;;;;;19.67;6.00;;;;;;;-0.32;60.87;101977.97;5021437;28;20028;-76
2022/03/08 05:42:07;;;;;;;25.70;7.38;;;;;;;-0.33;61.37;101974.47;5046617;28;20388;-77
2022/03/08 05:44:32;;;;;;;20.02;6.28;;;;;;;-0.32;61.08;101980.63;5053300;28;20036;-77
2022/03/08 05:46:57;;;;;;;18.33;6.35;;;;;;;-0.29;61.13;101977.94;5032086;28;20039;-77
2022/03/08 05:49:23;;;;;;;21.50;6.63;;;;;;;-0.31;61.00;101980.59;5044853;28;20029;-77
2022/03/08 05:51:48;;;;;;;20.73;7.03;;;;;;;-0.30;60.91;101990.28;5032028;28;20032;-76
2022/03/08 05:54:14;;;;;;;37.92;7.38;;;;;;;-0.32;61.07;101981.50;5048987;28;20098;-77
2022/03/08 05:56:39;;;;;;;20.42;6.88;;;;;;;-0.29;61.00;101986.75;5034950;28;20025;-77
2022/03/08 05:59:04;;;;;;;18.45;6.80;;;;;;;-0.29;60.83;101985.88;5046090;28;20041;-77
2022/03/08 06:01:29;;;;;;;19.13;7.13;;;;;;;-0.29;60.99;101975.31;5049449;28;20437;-76
2022/03/08 06:03:55;;;;;;;19.88;6.07;;;;;;;-0.29;60.72;101965.63;5051375;28;20029;-76
2022/03/08 06:06:20;;;;;;;20.73;6.57;;;;;;;-0.29;60.78;101973.56;5046811;28;20503;-77
2022/03/08 06:08:46;;;;;;;21.77;6.82;;;;;;;-0.29;61.03;101973.56;5024153;28;20043;-77
2022/03/08 06:11:12;;;;;;;18.92;6.63;;;;;;;-0.28;60.79;101967.38;5030975;28;20048;-77
2022/03/08 06:13:37;;;;;;;18.02;6.90;;;;;;;-0.25;60.59;101971.75;5048501;28;20435;-77
2022/03/08 06:16:03;;;;;;;17.15;6.20;;;;;;;-0.24;60.63;101962.94;5049370;28;20101;-77
2022/03/08 06:18:28;;;;;;;19.52;7.00;;;;;;;-0.24;60.53;101963.81;5047533;28;20082;-77
2022/03/08 06:20:53;;;;;;;16.25;5.80;;;;;;;-0.23;60.40;101968.19;5050421;28;20032;-77
2022/03/08 06:23:18;;;;;;;18.80;6.60;;;;;;;-0.21;60.73;101974.34;5050762;28;20036;-76
2022/03/08 06:25:44;;;;;;;19.02;6.65;;;;;;;-0.18;60.33;101973.44;5031186;28;20028;-76
2022/03/08 06:28:09;;;;;;;19.15;6.03;;;;;;;-0.17;60.50;101977.84;5030463;28;20148;-77
2022/03/08 06:30:34;;;;;;;18.67;6.43;;;;;;;-0.16;60.53;101974.31;5031573;28;20025;-77
2022/03/08 06:33:00;;;;;;;19.75;6.30;;;;;;;-0.13;60.69;101978.66;5050836;28;20032;-77
2022/03/08 06:35:25;;;;;;;20.08;7.00;;;;;;;-0.13;60.29;101969.00;5050389;28;20041;-76
2022/03/08 06:37:50;;;;;;;20.63;7.15;;;;;;;-0.10;60.31;101968.94;5039047;28;20016;-77
2022/03/08 06:40:16;;;;;;;20.23;6.43;;;;;;;-0.07;60.46;101963.63;5037932;28;20099;-77
2022/03/08 06:42:41;;;;;;;18.90;6.35;;;;;;;-0.04;59.82;101976.81;5043524;28;20587;-77
2022/03/08 06:45:07;;;;;;;20.85;6.82;;;;;;;-0.04;60.28;101974.16;5029983;28;20498;-77
2022/03/08 06:47:33;;;;;;;18.92;6.50;;;;;;;0.01;59.93;101973.25;5046238;28;20088;-76
2022/03/08 06:49:59;;;;;;;20.63;7.57;;;;;;;0.02;59.57;101970.59;5048056;28;20036;-77
2022/03/08 06:52:24;;;;;;;18.92;6.63;;;;;;;0.05;59.62;101974.97;5051409;28;20025;-77
2022/03/08 06:54:50;;;;;;;20.63;6.53;;;;;;;0.10;59.41;101973.13;5049211;28;20688;-77
2022/03/08 06:57:15;;;;;;;21.67;5.75;;;;;;;0.16;59.47;101973.94;5049699;28;20506;-77
2022/03/08 06:59:40;;;;;;;19.17;6.13;;;;;;;0.18;59.49;101973.94;5049724;28;20438;-77
2022/03/08 07:02:06;;;;;;;16.90;6.65;;;;;;;0.21;59.46;101968.59;5032821;28;20025;-75
2022/03/08 07:04:31;;;;;;;19.05;6.78;;;;;;;0.24;59.36;101975.63;5056742;28;20114;-75
2022/03/08 07:06:56;;;;;;;17.48;7.10;;;;;;;0.27;59.05;101978.22;5062065;28;20037;-76
2022/03/08 07:09:22;;;;;;;18.52;6.00;;;;;;;0.29;59.44;101964.09;5049543;28;20377;-76
2022/03/08 07:11:47;;;;;;;21.30;7.28;;;;;;;0.36;58.71;101969.31;5067104;28;20060;-76
2022/03/08 07:14:15;;;;;;;20.27;6.68;;;;;;;0.39;59.25;101974.56;5032605;28;20144;-76
2022/03/08 07:16:44;;;;;;;17.40;6.32;;;;;;;0.44;58.38;101980.66;5030805;28;20032;-76
2022/03/08 07:19:11;;;;;;;19.45;6.50;;;;;;;0.46;58.06;101969.16;5047608;28;20036;-76
2022/03/08 07:21:36;;;;;;;22.40;6.47;;;;;;;0.53;58.18;101977.91;5048246;28;20017;-76
2022/03/08 07:24:02;;;;;;;20.13;7.38;;;;;;;0.55;58.12;101984.03;5049033;28;20100;-77
2022/03/08 07:26:27;;;;;;;20.95;6.93;;;;;;;0.62;58.01;101991.00;5030028;28;20036;-76
2022/03/08 07:28:52;;;;;;;19.00;6.82;;;;;;;0.67;57.77;101983.88;5049466;28;20039;-76
2022/03/08 07:31:18;;;;;;;27.10;7.32;;;;;;;0.74;57.65;101986.44;5048826;28;20025;-76
2022/03/08 07:33:43;;;;;;;18.67;6.75;;;;;;;0.78;57.55;101989.00;5057678;28;20032;-80
2022/03/08 07:36:08;;;;;;;18.95;7.32;;;;;;;0.82;56.97;101981.88;5052538;28;20540;-78
2022/03/08 07:38:34;;;;;;;17.05;6.78;;;;;;;0.87;56.38;101982.72;5031630;28;20028;-78
2022/03/08 07:40:59;;;;;;;16.88;6.75;;;;;;;0.92;56.33;101980.84;5030047;28;20033;-80
2022/03/08 07:43:24;;;;;;;19.48;8.20;;;;;;;0.97;56.45;101975.53;5050413;28;20017;-79
2022/03/08 07:45:49;;;;;;;18.58;6.82;;;;;;;1.02;56.06;101971.00;5042943;28;20391;-78
2022/03/08 07:48:15;;;;;;;19.52;6.90;;;;;;;1.08;55.55;101962.09;5054097;28;20036;-78
2022/03/08 07:50:41;;;;;;;18.63;6.43;;;;;;;1.13;55.54;101966.44;5035538;28;20403;-80
2022/03/08 07:53:06;;;;;;;18.88;6.20;;;;;;;1.20;55.35;101953.94;5040867;28;20037;-79
2022/03/08 07:55:32;;;;;;;19.00;7.10;;;;;;;1.25;55.25;101962.72;5051611;28;20059;-79
2022/03/08 07:57:59;;;;;;;19.10;6.35;;;;;;;1.33;54.86;101970.53;5055540;28;20032;-79
2022/03/08 08:00:26;;;;;;;18.67;6.78;;;;;;;1.38;54.89;101969.53;5050764;28;20119;-79
2022/03/08 08:02:51;;;;;;;19.35;7.05;;;;;;;1.46;54.57;101972.06;5038135;28;20087;-79
2022/03/08 08:05:17;;;;;;;18.48;6.40;;;;;;;1.53;53.28;101962.25;5050725;28;20033;-79
2022/03/08 08:07:43;;;;;;;20.55;6.90;;;;;;;1.60;53.98;101969.19;5056313;28;20080;-80
2022/03/08 08:10:09;;;;;;;19.20;6.88;;;;;;;1.67;52.80;101959.31;5051903;28;20079;-79
2022/03/08 08:12:35;;;;;;;17.42;6.07;;;;;;;1.73;52.84;101961.88;5055915;28;20052;-79
2022/03/08 08:15:00;;;;;;;18.70;6.97;;;;;;;1.80;53.03;101967.94;5019402;28;20032;-79
2022/03/08 08:17:25;;;;;;;19.98;6.50;;;;;;;1.88;52.56;101971.31;5051616;28;20063;-80
2022/03/08 08:19:50;;;;;;;20.38;6.93;;;;;;;1.94;52.87;101963.25;5052290;28;20404;-80
2022/03/08 08:22:16;;;;;;;18.50;7.05;;;;;;;2.01;52.25;101972.84;5034302;28;20071;-79
2022/03/08 08:24:41;;;;;;;19.00;6.32;;;;;;;2.07;51.94;101970.06;5048998;28;20140;-80
2022/03/08 08:27:06;;;;;;;19.27;7.18;;;;;;;2.13;51.86;101968.19;5033345;28;20045;-80
2022/03/08 08:29:32;;;;;;;19.67;6.93;;;;;;;2.17;52.42;101975.19;5059174;28;20031;-79
2022/03/08 08:31:57;;;;;;;18.60;6.85;;;;;;;2.22;52.24;101971.53;5034116;28;20060;-79
2022/03/08 08:34:22;;;;;;;17.88;7.03;;;;;;;2.31;51.39;101966.94;5063654;28;20032;-79
2022/03/08 08:36:48;;;;;;;20.58;7.10;;;;;;;2.36;51.79;101970.38;5038442;28;20028;-79
2022/03/08 08:39:14;;;;;;;17.77;6.72;;;;;;;2.42;51.19;101972.91;5064177;28;20037;-80
2022/03/08 08:41:41;;;;;;;20.08;6.75;;;;;;;2.48;51.23;101972.78;5050744;28;20025;-80
2022/03/08 08:44:07;;;;;;;20.60;7.03;;;;;;;2.55;50.63;101970.88;5050190;28;20033;-80
2022/03/08 08:46:32;;;;;;;19.73;7.00;;;;;;;2.60;49.64;101968.97;5033240;28;20047;-79
2022/03/08 08:48:57;;;;;;;17.40;6.65;;;;;;;2.64;50.05;101961.84;5056097;28;20024;-79
2022/03/08 08:51:22;;;;;;;19.55;5.90;;;;;;;2.69;49.85;101944.88;5056251;28;20056;-80
2022/03/08 08:53:48;;;;;;;28.67;6.90;;;;;;;2.75;49.62;101955.38;5038054;28;20025;-80
2022/03/08 08:56:13;;;;;;;18.25;6.75;;;;;;;2.80;48.78;101945.50;5061613;28;20032;-80
2022/03/08 08:58:38;;;;;;;18.65;6.03;;;;;;;2.86;49.31;101946.28;5051896;28;20373;-81
2022/03/08 09:01:03;;;;;;;17.13;6.10;;;;;;;2.93;48.61;101939.91;5050200;28;20025;-81
2022/03/08 09:03:29;;;;;;;18.83;6.63;;;;;;;3.00;48.98;101946.81;5035054;28;20028;-82
2022/03/08 09:05:54;;;;;;;19.50;6.72;;;;;;;3.06;49.04;101948.44;5047929;28;20036;-81
2022/03/08 09:08:23;;;;;;;18.30;5.78;;;;;;;3.13;48.21;101947.38;5052026;28;20041;-81
2022/03/08 09:10:50;;;;;;;18.92;6.43;;;;;;;3.18;48.41;101963.22;5054275;28;20039;-81
2022/03/08 09:13:15;;;;;;;19.58;6.82;;;;;;;3.24;47.49;101960.41;5053007;28;20040;-81
2022/03/08 09:15:40;;;;;;;18.15;6.15;;;;;;;3.31;48.46;101964.69;5054249;28;20476;-81
2022/03/08 09:18:07;;;;;;;19.10;6.30;;;;;;;3.36;47.64;101957.44;5049841;28;20041;-81
2022/03/08 09:20:33;;;;;;;18.83;7.13;;;;;;;3.42;47.30;101959.94;5030364;28;20094;-80
2022/03/08 09:22:58;;;;;;;17.92;6.25;;;;;;;3.48;47.45;101946.53;5036997;28;20021;-80
2022/03/08 09:25:23;;;;;;;18.02;6.35;;;;;;;3.53;47.10;101943.72;5047508;28;20029;-80
2022/03/08 09:27:48;;;;;;;19.00;6.10;;;;;;;3.59;47.01;101950.69;5035487;28;20025;-80
2022/03/08 09:30:14;;;;;;;20.48;6.85;;;;;;;3.65;46.90;101937.22;5039851;28;20090;-80
2022/03/08 09:32:39;;;;;;;18.52;5.75;;;;;;;3.68;46.88;101942.44;5055029;28;20036;-80
2022/03/08 09:35:05;;;;;;;18.88;6.57;;;;;;;3.76;46.96;101937.78;5032522;28;20033;-80
2022/03/08 09:37:30;;;;;;;19.95;6.65;;;;;;;3.84;46.81;101926.94;5053991;28;20087;-80
2022/03/08 09:39:56;;;;;;;19.02;6.45;;;;;;;3.89;46.76;101921.50;5039325;28;20260;-81
2022/03/08 09:42:22;;;;;;;18.35;6.75;;;;;;;3.95;46.04;101927.53;5048186;28;20027;-81
2022/03/08 09:44:48;;;;;;;21.70;6.85;;;;;;;4.03;45.95;101929.97;5037286;28;20059;-81
2022/03/08 09:47:14;;;;;;;16.77;6.22;;;;;;;4.09;45.82;101920.94;5029468;28;20029;-80
2022/03/08 09:49:40;;;;;;;17.33;6.05;;;;;;;4.16;45.89;101922.50;5044202;28;20035;-81
2022/03/08 09:52:05;;;;;;;16.08;5.72;;;;;;;4.23;44.64;101916.06;5053108;28;20025;-82
2022/03/08 09:54:30;;;;;;;19.08;6.40;;;;;;;4.27;44.45;101927.50;5036097;28;20454;-82
2022/03/08 09:56:56;;;;;;;16.88;5.75;;;;;;;4.30;43.95;101927.41;5036584;28;20044;-80
2022/03/08 09:59:21;;;;;;;16.35;6.18;;;;;;;4.35;44.56;101920.16;5048044;28;20040;-80
2022/03/08 10:01:48;;;;;;;19.67;6.28;;;;;;;4.37;43.99;101907.69;5036236;28;20373;-80
2022/03/08 10:04:18;;;;;;;16.00;6.07;;;;;;;4.42;44.85;101905.72;5036781;28;20062;-81
2022/03/08 10:06:46;;;;;;;19.70;6.50;;;;;;;4.47;44.64;101898.50;5061030;28;20051;-81
2022/03/08 10:09:20;;;;;;;16.77;5.97;;;;;;;4.51;43.61;101897.47;5040220;28;20118;-81
2022/03/08 10:11:50;;;;;;;20.00;6.20;;;;;;;4.59;44.04;101891.91;5039579;28;20032;-81
2022/03/08 10:14:26;;;;;;;;;;;;;;;4.63;44.33;101890.91;5034357;28;20120;-80
2022/03/08 10:16:52;;;;;;;19.45;6.57;;;;;;;4.68;43.28;101901.41;5048931;28;20191;-80
2022/03/08 10:19:17;;;;;;;16.70;6.20;;;;;;;4.73;43.62;101888.81;5054758;28;20028;-80
2022/03/08 10:21:48;;;;;;;18.33;6.15;;;;;;;4.81;44.13;101902.75;5053829;28;20034;-81
2022/03/08 10:24:25;;;;;;;15.57;5.47;;;;;;;4.84;43.88;101893.78;5052369;28;20036;-80
2022/03/08 10:26:56;;;;;;;16.08;6.20;;;;;;;4.87;43.18;101896.34;5041716;28;20028;-81
2022/03/08 10:29:30;;;;;;;21.30;6.68;;;;;;;4.94;44.48;101897.03;5057783;28;20032;-80
2022/03/08 10:32:11;;;;;;;17.65;6.32;;;;;;;5.00;44.80;101900.34;5049729;28;20102;-80
2022/03/08 10:34:38;;;;;;;17.73;6.35;;;;;;;5.07;43.88;101898.38;5037098;28;20043;-80
2022/03/08 10:37:13;;;;;;;21.25;5.90;;;;;;;5.15;44.38;101890.97;5035582;28;20119;-80
2022/03/08 10:40:09;;;;;;;19.00;6.38;;;;;;;5.20;43.92;101894.38;5040688;28;20082;-80
2022/03/08 10:42:39;;;;;;;18.85;5.65;;;;;;;5.25;43.36;101878.22;5028581;28;20050;-81
2022/03/08 10:45:10;;;;;;;16.80;6.28;;;;;;;5.30;42.71;101884.28;5054043;28;20480;-82
2022/03/08 10:47:43;;;;;;;17.50;5.72;;;;;;;5.35;41.43;101879.63;5034107;28;20033;-80
2022/03/08 10:50:10;;;;;;;17.08;6.38;;;;;;;5.37;43.01;101871.56;5030370;28;20025;-81
2022/03/08 10:52:38;;;;;;;17.25;6.18;;;;;;;5.38;42.27;101882.19;5038488;28;20041;-81
2022/03/08 10:55:23;;;;;;;19.48;6.82;;;;;;;5.40;42.42;101872.34;5051673;28;20559;-81
2022/03/08 10:57:53;;;;;;;18.52;6.32;;;;;;;5.46;42.96;101873.94;5057297;28;20036;-79
2022/03/08 11:00:20;;;;;;;17.52;6.30;;;;;;;5.54;42.34;101869.19;5040012;28;20036;-78
2022/03/08 11:02:56;;;;;;;17.52;6.28;;;;;;;5.56;42.07;101867.34;5048477;28;20021;-78
2022/03/08 11:05:24;;;;;;;17.05;5.78;;;;;;;5.62;42.38;101868.91;5043156;28;20040;-78
2022/03/08 11:07:50;;;;;;;17.55;5.95;;;;;;;5.66;42.11;101869.69;5025810;28;20095;-78
2022/03/08 11:10:17;;;;;;;17.52;5.97;;;;;;;5.73;41.63;101871.19;5045675;28;20021;-78
2022/03/08 11:12:43;;;;;;;19.67;6.75;;;;;;;5.78;42.16;101866.56;5041378;28;20013;-79
2022/03/08 11:15:11;;;;;;;18.33;6.78;;;;;;;5.86;42.58;101863.63;5041320;28;20032;-79
2022/03/08 11:17:38;;;;;;;20.90;7.03;;;;;;;5.95;42.01;101868.59;5039424;28;20031;-78
2022/03/08 11:20:08;;;;;;;16.05;6.35;;;;;;;6.02;41.06;101851.47;5044592;28;20025;-79